Arklow Raider — EIXS — position and weather

sailwx.info

Track history (hours):
 
Tides and Currents Weather Stations Pressure Air Temp Water Temp Dewpoint Dewpoint Depression Visibility Wind Speed Wind Dir Waves Ship Positions

Arklow Raider

Last reported at 2017-Apr-24 03:03 UTC. Time now 2017-Apr-24 03:37 UTC.
Position N 38°44' W 009°06'.

Length 90 m; draft 4 m.

Type: Cargo ship. MMSI: 250001268.

Date/timePositionNaut miles runAvg speedWind from/ knotsBaromVisibWave heightAir tempDewpointWater temp
2017-Apr-24 03:03N 38°44' W 009°06'0 0.1
2017-Apr-24 03:00N 38°44' W 009°06'0 0.0
2017-Apr-24 02:21N 38°44' W 009°06'0 0.0
2017-Apr-24 02:00N 38°44' W 009°06'0 0.0
2017-Apr-24 01:24N 38°44' W 009°06'0 0.0
2017-Apr-24 01:00N 38°44' W 009°06'0 0.0
2017-Apr-24 00:27N 38°44' W 009°06'0 0.0
2017-Apr-24 00:00N 38°44' W 009°06'0 0.0
2017-Apr-23 23:27N 38°44' W 009°06'0 0.0
2017-Apr-23 22:57N 38°44' W 009°06'0 0.0
2017-Apr-23 22:30N 38°44' W 009°06'0 0.0
2017-Apr-23 21:45N 38°44' W 009°06'0 0.0
2017-Apr-23 21:30N 38°44' W 009°06'0 0.0
2017-Apr-23 21:00N 38°44' W 009°06'0 0.0
2017-Apr-23 20:30N 38°44' W 009°06'0 0.0
2017-Apr-23 19:57N 38°44' W 009°06'0 0.0
2017-Apr-23 19:30N 38°44' W 009°06'0 0.0
2017-Apr-23 19:00N 38°44' W 009°06'0 0.0
2017-Apr-23 18:30N 38°44' W 009°06'0 0.0
2017-Apr-23 17:51N 38°44' W 009°06'0 0.0
2017-Apr-23 17:24N 38°44' W 009°06'0 0.0
2017-Apr-23 17:00N 38°44' W 009°06'0 0.0
2017-Apr-23 16:30N 38°44' W 009°06'0 0.0
2017-Apr-23 16:00N 38°44' W 009°06'0 0.0
2017-Apr-23 15:15N 38°44' W 009°06'0 0.0
2017-Apr-23 15:00N 38°44' W 009°06'0 0.0
2017-Apr-23 14:00N 38°44' W 009°06'0 0.0
2017-Apr-23 13:30N 38°44' W 009°06'0 0.0
2017-Apr-23 12:57N 38°44' W 009°06'0 0.0
2017-Apr-23 12:30N 38°44' W 009°06'0 0.0
2017-Apr-23 12:00N 38°44' W 009°06'0 0.0
2017-Apr-23 11:30N 38°44' W 009°06'0 0.0
2017-Apr-23 10:57N 38°44' W 009°06'0 0.0
2017-Apr-23 10:27N 38°44' W 009°06'0 0.0
2017-Apr-23 10:00N 38°44' W 009°06'0 0.0
2017-Apr-23 09:27N 38°44' W 009°06'0 0.0
2017-Apr-23 08:52N 38°44' W 009°06'0 0.7
2017-Apr-23 08:31N 38°44' W 009°06'5 9.7
2017-Apr-23 08:00N 38°41' W 009°11'4 8.9
2017-Apr-23 07:30N 38°41' W 009°17'4 8.9
2017-Apr-23 07:00N 38°38' W 009°21'4 7.8
2017-Apr-23 06:30N 38°35' W 009°24'2 3.8
2017-Apr-23 06:00N 38°33' W 009°25'2 3.6
2017-Apr-23 05:31N 38°31' W 009°24'2 4.8
2017-Apr-23 05:00N 38°29' W 009°23'4 8.5
2017-Apr-23 04:30N 38°25' W 009°23'4 8.7
2017-Apr-23 04:00N 38°21' W 009°22'4 8.3
2017-Apr-23 03:30N 38°17' W 009°22'4 8.3
2017-Apr-23 03:00N 38°12' W 009°22'4 8.3
2017-Apr-23 02:30N 38°08' W 009°22'4 8.9
2017-Apr-23 02:00N 38°04' W 009°22'4 8.9
2017-Apr-23 01:30N 37°59' W 009°22'5 9.1
2017-Apr-23 01:00N 37°55' W 009°22'4 9.0
2017-Apr-23 00:30N 37°50' W 009°22'4 8.9
2017-Apr-23 00:00N 37°46' W 009°21'5 9.0
2017-Apr-22 23:30N 37°41' W 009°21'5 9.0
2017-Apr-22 23:00N 37°37' W 009°21'56 7.9
2017-Apr-22 15:55N 36°44' W 008°59'4 8.8
2017-Apr-22 15:31N 36°44' W 008°55'4 8.6
2017-Apr-22 15:00N 36°44' W 008°50'4 8.5
2017-Apr-22 14:31N 36°44' W 008°44'  
2017-Apr-19 11:16N 36°41' W 008°04'410.0
2017-Apr-19 10:52N 36°41' W 008°09'1610.6
2017-Apr-19 09:23N 36°39' W 008°28'410.9
2017-Apr-19 09:00N 36°37' W 008°33'710.9
2017-Apr-19 08:21N 36°35' W 008°41'710.9
2017-Apr-19 07:41N 36°32' W 008°50'211.1
2017-Apr-19 07:30N 36°32' W 008°52'710.9
2017-Apr-19 06:53N 36°32' W 009°00'410.9
2017-Apr-19 06:30N 36°32' W 009°05'9310.2
2017-Apr-18 21:23N 37°57' W 009°53'411.1
2017-Apr-18 21:00N 38°02' W 009°54'2210.7
2017-Apr-18 18:55N 38°23' W 010°02'410.5
2017-Apr-18 18:30N 38°27' W 010°03'510.7
2017-Apr-18 18:00N 38°33' W 010°04'510.7
2017-Apr-18 17:30N 38°38' W 010°06'510.5
2017-Apr-18 17:00N 38°43' W 010°08'510.9
2017-Apr-18 16:30N 38°48' W 010°08'510.5
2017-Apr-18 16:00N 38°54' W 010°08'510.6
2017-Apr-18 15:31N 38°59' W 010°07'510.8
2017-Apr-18 15:00N 39°04' W 010°07'1110.6
2017-Apr-18 14:00N 39°15' W 010°07'510.3
2017-Apr-18 13:30N 39°20' W 010°08'510.4
2017-Apr-18 13:00N 39°25' W 010°08'2510.9
2017-Apr-18 10:42N 39°50' W 010°07'211.0
2017-Apr-18 10:30N 39°52' W 010°07'11410.8
2017-Apr-18 00:02N 41°46' W 010°07'011.0
2017-Apr-17 23:59N 41°46' W 010°07'510.6
2017-Apr-17 23:30N 41°52' W 010°07'510.6
2017-Apr-17 23:00N 41°57' W 010°07'710.6
2017-Apr-17 22:23N 42°03' W 010°07'410.9
2017-Apr-17 22:00N 42°08' W 010°07'711.2
2017-Apr-17 21:25N 42°14' W 010°07'  
2017-Apr-15 01:55N 53°59' W 005°23'511.1
2017-Apr-15 01:30N 54°04' W 005°22'611.1
2017-Apr-15 01:00N 54°09' W 005°20'511.2
2017-Apr-15 00:30N 54°15' W 005°19'611.3
2017-Apr-15 00:00N 54°20' W 005°18'611.8
2017-Apr-14 23:30N 54°26' W 005°16'612.2
2017-Apr-14 23:00N 54°32' W 005°16'612.8
2017-Apr-14 22:30N 54°39' W 005°16'612.9
2017-Apr-14 22:00N 54°45' W 005°16'612.6
2017-Apr-14 21:31N 54°51' W 005°16'713.1
2017-Apr-14 21:01N 54°58' W 005°16'612.4
2017-Apr-14 20:30N 55°04' W 005°14'  
Track history (hours):
 
Tides and Currents Weather Stations Pressure Air Temp Water Temp Dewpoint Dewpoint Depression Visibility Wind Speed Wind Dir Waves Ship Positions

Arklow Raider

Last reported at 2017-Apr-24 03:03 UTC. Time now 2017-Apr-24 03:37 UTC.
Position N 38°44' W 009°06'.

Length 90 m; draft 4 m.

Type: Cargo ship. MMSI: 250001268.

Date/timePositionNaut miles runAvg speedWind from/ knotsBaromVisibWave heightAir tempDewpointWater temp
2017-Apr-24 03:03N 38°44' W 009°06'0 0.1
2017-Apr-24 03:00N 38°44' W 009°06'0 0.0
2017-Apr-24 02:21N 38°44' W 009°06'0 0.0
2017-Apr-24 02:00N 38°44' W 009°06'0 0.0
2017-Apr-24 01:24N 38°44' W 009°06'0 0.0
2017-Apr-24 01:00N 38°44' W 009°06'0 0.0
2017-Apr-24 00:27N 38°44' W 009°06'0 0.0
2017-Apr-24 00:00N 38°44' W 009°06'0 0.0
2017-Apr-23 23:27N 38°44' W 009°06'0 0.0
2017-Apr-23 22:57N 38°44' W 009°06'0 0.0
2017-Apr-23 22:30N 38°44' W 009°06'0 0.0
2017-Apr-23 21:45N 38°44' W 009°06'0 0.0
2017-Apr-23 21:30N 38°44' W 009°06'0 0.0
2017-Apr-23 21:00N 38°44' W 009°06'0 0.0
2017-Apr-23 20:30N 38°44' W 009°06'0 0.0
2017-Apr-23 19:57N 38°44' W 009°06'0 0.0
2017-Apr-23 19:30N 38°44' W 009°06'0 0.0
2017-Apr-23 19:00N 38°44' W 009°06'0 0.0
2017-Apr-23 18:30N 38°44' W 009°06'0 0.0
2017-Apr-23 17:51N 38°44' W 009°06'0 0.0
2017-Apr-23 17:24N 38°44' W 009°06'0 0.0
2017-Apr-23 17:00N 38°44' W 009°06'0 0.0
2017-Apr-23 16:30N 38°44' W 009°06'0 0.0
2017-Apr-23 16:00N 38°44' W 009°06'0 0.0
2017-Apr-23 15:15N 38°44' W 009°06'0 0.0
2017-Apr-23 15:00N 38°44' W 009°06'0 0.0
2017-Apr-23 14:00N 38°44' W 009°06'0 0.0
2017-Apr-23 13:30N 38°44' W 009°06'0 0.0
2017-Apr-23 12:57N 38°44' W 009°06'0 0.0
2017-Apr-23 12:30N 38°44' W 009°06'0 0.0
2017-Apr-23 12:00N 38°44' W 009°06'0 0.0
2017-Apr-23 11:30N 38°44' W 009°06'0 0.0
2017-Apr-23 10:57N 38°44' W 009°06'0 0.0
2017-Apr-23 10:27N 38°44' W 009°06'0 0.0
2017-Apr-23 10:00N 38°44' W 009°06'0 0.0
2017-Apr-23 09:27N 38°44' W 009°06'0 0.0
2017-Apr-23 08:52N 38°44' W 009°06'0 0.7
2017-Apr-23 08:31N 38°44' W 009°06'5 9.7
2017-Apr-23 08:00N 38°41' W 009°11'4 8.9
2017-Apr-23 07:30N 38°41' W 009°17'4 8.9
2017-Apr-23 07:00N 38°38' W 009°21'4 7.8
2017-Apr-23 06:30N 38°35' W 009°24'2 3.8
2017-Apr-23 06:00N 38°33' W 009°25'2 3.6
2017-Apr-23 05:31N 38°31' W 009°24'2 4.8
2017-Apr-23 05:00N 38°29' W 009°23'4 8.5
2017-Apr-23 04:30N 38°25' W 009°23'4 8.7
2017-Apr-23 04:00N 38°21' W 009°22'4 8.3
2017-Apr-23 03:30N 38°17' W 009°22'4 8.3
2017-Apr-23 03:00N 38°12' W 009°22'4 8.3
2017-Apr-23 02:30N 38°08' W 009°22'4 8.9
2017-Apr-23 02:00N 38°04' W 009°22'4 8.9
2017-Apr-23 01:30N 37°59' W 009°22'5 9.1
2017-Apr-23 01:00N 37°55' W 009°22'4 9.0
2017-Apr-23 00:30N 37°50' W 009°22'4 8.9
2017-Apr-23 00:00N 37°46' W 009°21'5 9.0
2017-Apr-22 23:30N 37°41' W 009°21'5 9.0
2017-Apr-22 23:00N 37°37' W 009°21'56 7.9
2017-Apr-22 15:55N 36°44' W 008°59'4 8.8
2017-Apr-22 15:31N 36°44' W 008°55'4 8.6
2017-Apr-22 15:00N 36°44' W 008°50'4 8.5
2017-Apr-22 14:31N 36°44' W 008°44'  
2017-Apr-19 11:16N 36°41' W 008°04'410.0
2017-Apr-19 10:52N 36°41' W 008°09'1610.6
2017-Apr-19 09:23N 36°39' W 008°28'410.9
2017-Apr-19 09:00N 36°37' W 008°33'710.9
2017-Apr-19 08:21N 36°35' W 008°41'710.9
2017-Apr-19 07:41N 36°32' W 008°50'211.1
2017-Apr-19 07:30N 36°32' W 008°52'710.9
2017-Apr-19 06:53N 36°32' W 009°00'410.9
2017-Apr-19 06:30N 36°32' W 009°05'9310.2
2017-Apr-18 21:23N 37°57' W 009°53'411.1
2017-Apr-18 21:00N 38°02' W 009°54'2210.7
2017-Apr-18 18:55N 38°23' W 010°02'410.5
2017-Apr-18 18:30N 38°27' W 010°03'510.7
2017-Apr-18 18:00N 38°33' W 010°04'510.7
2017-Apr-18 17:30N 38°38' W 010°06'510.5
2017-Apr-18 17:00N 38°43' W 010°08'510.9
2017-Apr-18 16:30N 38°48' W 010°08'510.5
2017-Apr-18 16:00N 38°54' W 010°08'510.6
2017-Apr-18 15:31N 38°59' W 010°07'510.8
2017-Apr-18 15:00N 39°04' W 010°07'1110.6
2017-Apr-18 14:00N 39°15' W 010°07'510.3
2017-Apr-18 13:30N 39°20' W 010°08'510.4
2017-Apr-18 13:00N 39°25' W 010°08'2510.9
2017-Apr-18 10:42N 39°50' W 010°07'211.0
2017-Apr-18 10:30N 39°52' W 010°07'11410.8
2017-Apr-18 00:02N 41°46' W 010°07'011.0
2017-Apr-17 23:59N 41°46' W 010°07'510.6
2017-Apr-17 23:30N 41°52' W 010°07'510.6
2017-Apr-17 23:00N 41°57' W 010°07'710.6
2017-Apr-17 22:23N 42°03' W 010°07'410.9
2017-Apr-17 22:00N 42°08' W 010°07'711.2
2017-Apr-17 21:25N 42°14' W 010°07'  
2017-Apr-15 01:55N 53°59' W 005°23'511.1
2017-Apr-15 01:30N 54°04' W 005°22'611.1
2017-Apr-15 01:00N 54°09' W 005°20'511.2
2017-Apr-15 00:30N 54°15' W 005°19'611.3
2017-Apr-15 00:00N 54°20' W 005°18'611.8
2017-Apr-14 23:30N 54°26' W 005°16'612.2
2017-Apr-14 23:00N 54°32' W 005°16'612.8
2017-Apr-14 22:30N 54°39' W 005°16'612.9
2017-Apr-14 22:00N 54°45' W 005°16'612.6
2017-Apr-14 21:31N 54°51' W 005°16'713.1
2017-Apr-14 21:01N 54°58' W 005°16'612.4
2017-Apr-14 20:30N 55°04' W 005°14'  

Dump ship's entire track history